Time;durP1;ratioP1;P1;durP2;ratioP2;P2;SDS_P1;SDS_P2;PMS_P1;PMS_P2;Temp;Humidity;BMP_temperature;BMP_pressure;BME280_temperature;BME280_humidity;BME280_pressure;Samples;Min_cycle;Max_cycle;Signal;HPM_P1;HPM_P2
2022/07/23 00:01:34;;;;;;;4.67;4.07;;;18.20;99.90;;;;;;4993272;28;20215;-73
2022/07/23 00:03:59;;;;;;;6.67;4.17;;;18.20;99.90;;;;;;4993364;28;20364;-73
2022/07/23 00:06:25;;;;;;;4.63;4.23;;;18.10;99.90;;;;;;4993209;28;20180;-74
2022/07/23 00:08:52;;;;;;;5.30;4.43;;;18.00;99.90;;;;;;5004185;28;20172;-75
2022/07/23 00:11:18;;;;;;;7.03;5.03;;;18.00;99.90;;;;;;4996093;28;20667;-72
2022/07/23 00:13:44;;;;;;;4.70;3.80;;;18.00;99.90;;;;;;4993295;28;20415;-69
2022/07/23 00:16:09;;;;;;;10.00;4.80;;;18.10;99.90;;;;;;4989887;28;20439;-70
2022/07/23 00:18:35;;;;;;;5.93;4.60;;;18.00;99.90;;;;;;5003633;28;20263;-70
2022/07/23 00:21:00;;;;;;;6.80;4.27;;;18.00;99.90;;;;;;4973725;28;20711;-70
2022/07/23 00:23:28;;;;;;;4.80;4.33;;;18.00;99.90;;;;;;4974667;28;20619;-70
2022/07/23 00:25:53;;;;;;;4.73;4.23;;;18.00;99.90;;;;;;4973591;28;20639;-70
2022/07/23 00:28:19;;;;;;;13.30;4.47;;;18.00;99.90;;;;;;4973548;28;20419;-69
2022/07/23 00:30:45;;;;;;;5.07;4.20;;;18.10;99.90;;;;;;4973539;28;20248;-70
2022/07/23 00:33:11;;;;;;;5.37;4.83;;;18.00;99.90;;;;;;4977345;28;20690;-70
2022/07/23 00:35:40;;;;;;;4.73;4.23;;;18.10;99.90;;;;;;4992862;28;20165;-69
2022/07/23 00:38:06;;;;;;;9.37;5.00;;;18.00;99.90;;;;;;4992647;28;20429;-69
2022/07/23 00:40:33;;;;;;;6.17;4.23;;;18.00;99.90;;;;;;4992794;28;20428;-69
2022/07/23 00:42:59;;;;;;;4.73;4.37;;;18.00;99.90;;;;;;4992758;28;20893;-70
2022/07/23 00:45:25;;;;;;;5.93;4.47;;;18.00;99.90;;;;;;4992754;28;20419;-70
2022/07/23 00:47:50;;;;;;;6.40;4.50;;;18.00;99.90;;;;;;4992717;28;20445;-69
2022/07/23 00:50:16;;;;;;;5.40;4.87;;;17.90;99.90;;;;;;4974850;28;20287;-71
2022/07/23 00:52:42;;;;;;;4.63;4.23;;;18.00;99.90;;;;;;4973533;28;20662;-69
2022/07/23 00:55:09;;;;;;;5.13;3.63;;;17.90;99.90;;;;;;4991910;28;20501;-69
2022/07/23 00:57:36;;;;;;;5.37;4.13;;;17.80;99.90;;;;;;4992700;28;20666;-69
2022/07/23 01:00:03;;;;;;;4.20;3.70;;;17.80;99.90;;;;;;4992271;28;20428;-69
2022/07/23 01:02:29;;;;;;;4.13;3.73;;;17.80;99.90;;;;;;5039761;23;20480;-70
2022/07/23 01:04:54;;;;;;;6.30;4.40;;;17.80;99.90;;;;;;5031776;28;20459;-70
2022/07/23 01:07:21;;;;;;;4.67;4.17;;;17.80;99.90;;;;;;5032018;28;20159;-70
2022/07/23 01:09:48;;;;;;;4.10;3.70;;;17.70;99.90;;;;;;5032134;28;20573;-70
2022/07/23 01:12:13;;;;;;;5.23;4.73;;;17.70;99.90;;;;;;5031937;28;20984;-71
2022/07/23 01:14:39;;;;;;;4.60;4.17;;;17.70;99.90;;;;;;5031788;28;20425;-71
2022/07/23 01:17:05;;;;;;;5.23;4.47;;;17.70;99.90;;;;;;5031895;28;20170;-70
2022/07/23 01:19:30;;;;;;;5.17;4.60;;;17.60;99.90;;;;;;5031897;28;20181;-70
2022/07/23 01:21:59;;;;;;;5.70;4.70;;;17.60;99.90;;;;;;5032187;28;20433;-70
2022/07/23 01:24:24;;;;;;;6.57;5.03;;;17.50;99.90;;;;;;5031473;28;20187;-70
2022/07/23 01:26:50;;;;;;;4.60;4.20;;;17.50;99.90;;;;;;5031837;28;20413;-70
2022/07/23 01:29:16;;;;;;;5.03;4.57;;;17.50;99.90;;;;;;5031922;28;20235;-71
2022/07/23 01:31:42;;;;;;;4.97;4.47;;;17.50;99.90;;;;;;5031857;28;20646;-71
2022/07/23 01:34:08;;;;;;;4.47;3.87;;;17.40;99.90;;;;;;5031805;28;20410;-71
2022/07/23 01:36:35;;;;;;;4.77;4.23;;;17.40;99.90;;;;;;5031753;28;20406;-71
2022/07/23 01:39:01;;;;;;;4.53;4.13;;;17.30;99.90;;;;;;5031936;28;21180;-71
2022/07/23 01:41:27;;;;;;;6.23;4.77;;;17.30;99.90;;;;;;5031579;28;20460;-71
2022/07/23 01:43:52;;;;;;;5.93;4.40;;;17.30;99.90;;;;;;5031814;28;20416;-71
2022/07/23 01:46:18;;;;;;;7.03;4.67;;;17.30;99.90;;;;;;5031841;28;20684;-71
2022/07/23 01:48:43;;;;;;;6.67;4.50;;;17.20;99.90;;;;;;5032025;28;20198;-71
2022/07/23 01:51:09;;;;;;;6.10;5.27;;;17.20;99.90;;;;;;5031237;28;20244;-71
2022/07/23 01:53:34;;;;;;;5.60;5.10;;;17.20;99.90;;;;;;5031693;28;20540;-71
2022/07/23 01:56:00;;;;;;;5.83;3.80;;;17.20;99.90;;;;;;5031616;28;20172;-72
2022/07/23 01:58:27;;;;;;;8.30;4.30;;;17.30;99.90;;;;;;5031556;28;20165;-72
2022/07/23 02:00:53;;;;;;;6.70;4.50;;;17.20;99.90;;;;;;5031535;28;20185;-71
2022/07/23 02:03:20;;;;;;;7.93;5.00;;;17.20;99.90;;;;;;5031482;28;20462;-71
2022/07/23 02:05:46;;;;;;;5.17;3.93;;;17.20;99.90;;;;;;5030248;28;20418;-71
2022/07/23 02:08:11;;;;;;;6.67;4.50;;;17.20;99.90;;;;;;5030293;28;20408;-71
2022/07/23 02:10:37;;;;;;;5.40;4.90;;;17.10;99.90;;;;;;5031866;28;20202;-71
2022/07/23 02:13:03;;;;;;;4.23;3.83;;;17.20;99.90;;;;;;5035055;28;20188;-71
2022/07/23 02:15:28;;;;;;;5.73;5.20;;;17.20;99.90;;;;;;5035021;28;20194;-71
2022/07/23 02:17:54;;;;;;;5.30;4.87;;;17.20;99.90;;;;;;5035063;28;20161;-71
2022/07/23 02:20:20;;;;;;;6.50;4.70;;;17.30;99.90;;;;;;5035128;28;20169;-71
2022/07/23 02:22:46;;;;;;;8.90;4.53;;;17.30;99.90;;;;;;5035043;28;20523;-71
2022/07/23 02:25:11;;;;;;;5.73;5.17;;;17.20;99.90;;;;;;5034887;28;20594;-71
2022/07/23 02:27:37;;;;;;;5.50;4.60;;;17.20;99.90;;;;;;5034956;28;20170;-71
2022/07/23 02:30:03;;;;;;;5.43;4.57;;;17.10;99.90;;;;;;5034762;28;20202;-71
2022/07/23 02:32:29;;;;;;;6.30;4.50;;;17.10;99.90;;;;;;5034647;28;20196;-69
2022/07/23 02:34:54;;;;;;;4.33;3.77;;;17.00;99.90;;;;;;5034644;28;20408;-69
2022/07/23 02:37:20;;;;;;;4.97;4.50;;;16.90;99.90;;;;;;5034788;28;20230;-70
2022/07/23 02:39:48;;;;;;;6.87;5.10;;;16.80;99.90;;;;;;5034677;28;20261;-70
2022/07/23 02:42:13;;;;;;;5.37;4.87;;;16.70;99.90;;;;;;5034493;28;20193;-70
2022/07/23 02:44:39;;;;;;;8.13;4.27;;;16.80;99.90;;;;;;5034471;28;20421;-70
2022/07/23 02:47:05;;;;;;;8.60;4.83;;;16.80;99.90;;;;;;5034482;28;20826;-70
2022/07/23 02:49:30;;;;;;;5.03;4.40;;;16.70;99.90;;;;;;5034498;28;20197;-69
2022/07/23 02:51:56;;;;;;;3.87;3.57;;;16.70;99.90;;;;;;5034510;28;20188;-70
2022/07/23 02:54:21;;;;;;;6.70;4.80;;;16.60;99.90;;;;;;5034494;28;20193;-71
2022/07/23 02:56:47;;;;;;;6.20;4.10;;;16.60;99.90;;;;;;5034292;28;20684;-71
2022/07/23 02:59:13;;;;;;;4.60;4.10;;;16.50;99.90;;;;;;5034431;28;20512;-71
2022/07/23 03:01:39;;;;;;;5.77;4.60;;;16.50;99.90;;;;;;5034193;28;20326;-70
2022/07/23 03:04:05;;;;;;;5.30;4.13;;;16.60;99.90;;;;;;5034155;28;20943;-70
2022/07/23 03:06:31;;;;;;;8.27;4.57;;;16.60;99.90;;;;;;5034206;28;20173;-70
2022/07/23 03:08:56;;;;;;;7.30;4.27;;;16.50;99.90;;;;;;5034172;28;20173;-70
2022/07/23 03:11:22;;;;;;;4.10;3.80;;;16.40;99.90;;;;;;5034425;28;20696;-70
2022/07/23 03:13:47;;;;;;;4.10;3.57;;;16.30;99.90;;;;;;5034673;28;20247;-70
2022/07/23 03:16:13;;;;;;;4.30;3.90;;;16.30;99.90;;;;;;5034239;28;20183;-70
2022/07/23 03:18:38;;;;;;;6.53;4.20;;;16.30;99.90;;;;;;5035171;28;20762;-70
2022/07/23 03:21:04;;;;;;;8.73;6.80;;;16.20;99.90;;;;;;5034854;28;20168;-70
2022/07/23 03:23:29;;;;;;;3.83;3.53;;;16.40;99.90;;;;;;5034084;28;20546;-70
2022/07/23 03:25:55;;;;;;;5.30;3.67;;;16.30;99.90;;;;;;5033750;28;20548;-70
2022/07/23 03:28:21;;;;;;;6.03;5.53;;;16.20;99.90;;;;;;5033917;28;20173;-70
2022/07/23 03:30:47;;;;;;;5.60;3.87;;;16.30;99.90;;;;;;5033701;28;20204;-70
2022/07/23 03:33:17;;;;;;;5.83;4.20;;;16.20;99.90;;;;;;5033599;28;20679;-69
2022/07/23 03:35:43;;;;;;;5.63;3.93;;;16.20;99.90;;;;;;5033676;28;20410;-69
2022/07/23 03:38:09;;;;;;;5.53;3.60;;;16.10;99.90;;;;;;5033838;28;20433;-70
2022/07/23 03:40:34;;;;;;;4.50;3.77;;;16.20;99.90;;;;;;5033955;28;20932;-70
2022/07/23 03:43:00;;;;;;;5.23;4.37;;;16.20;99.90;;;;;;5033713;28;20226;-73
2022/07/23 03:45:26;;;;;;;4.37;3.77;;;16.20;99.90;;;;;;5033602;28;20197;-71
2022/07/23 03:47:52;;;;;;;5.10;3.43;;;16.00;99.90;;;;;;5033701;28;20924;-72
2022/07/23 03:50:17;;;;;;;4.43;3.50;;;16.10;99.90;;;;;;5033500;28;20203;-71
2022/07/23 03:52:43;;;;;;;3.83;3.53;;;16.00;99.90;;;;;;5032266;28;20200;-71
2022/07/23 03:55:09;;;;;;;5.70;3.53;;;16.20;99.90;;;;;;5033185;28;20198;-70
2022/07/23 03:57:34;;;;;;;5.97;3.30;;;16.10;99.90;;;;;;5033303;28;20659;-71
2022/07/23 04:00:00;;;;;;;3.63;3.33;;;16.10;99.90;;;;;;5033227;28;20192;-70
2022/07/23 04:02:25;;;;;;;5.07;3.60;;;16.20;99.90;;;;;;5033074;28;20223;-71
2022/07/23 04:04:51;;;;;;;2.93;2.30;;;16.10;99.90;;;;;;5033052;28;20593;-71
2022/07/23 04:07:17;;;;;;;3.00;2.70;;;16.10;99.90;;;;;;5033121;28;20669;-70
2022/07/23 04:09:43;;;;;;;3.57;2.87;;;16.10;99.90;;;;;;5032849;28;20233;-69
2022/07/23 04:12:09;;;;;;;3.73;2.80;;;16.20;99.90;;;;;;5032939;28;20485;-70
2022/07/23 04:14:35;;;;;;;3.60;2.63;;;16.20;99.90;;;;;;5033059;28;20900;-70
2022/07/23 04:17:01;;;;;;;3.40;3.00;;;16.40;99.90;;;;;;5033021;28;20175;-70
2022/07/23 04:19:27;;;;;;;4.03;2.50;;;16.30;99.90;;;;;;5033047;28;20175;-70
2022/07/23 04:21:52;;;;;;;3.07;2.57;;;16.10;99.90;;;;;;5032832;28;20428;-70
2022/07/23 04:24:18;;;;;;;4.30;2.60;;;16.00;99.90;;;;;;5032691;28;20177;-70
2022/07/23 04:26:44;;;;;;;12.97;4.03;;;16.20;99.90;;;;;;5032651;28;20172;-70
2022/07/23 04:29:10;;;;;;;2.33;2.10;;;16.30;99.90;;;;;;5032512;28;20182;-70
2022/07/23 04:31:35;;;;;;;3.07;1.80;;;16.30;99.90;;;;;;5031282;28;20437;-70
2022/07/23 04:34:01;;;;;;;1.80;1.60;;;16.20;99.90;;;;;;5031985;28;20173;-70
2022/07/23 04:36:27;;;;;;;6.60;2.50;;;16.20;99.90;;;;;;5032435;28;20165;-70
2022/07/23 04:38:52;;;;;;;2.83;2.63;;;16.10;99.90;;;;;;5032451;28;20691;-71
2022/07/23 04:41:18;;;;;;;3.43;1.93;;;16.20;99.90;;;;;;5032309;28;20280;-70
2022/07/23 04:43:43;;;;;;;3.50;2.60;;;16.10;99.90;;;;;;5032355;28;20184;-69
2022/07/23 04:46:10;;;;;;;2.40;2.20;;;15.90;99.90;;;;;;5032360;28;20178;-70
2022/07/23 04:48:36;;;;;;;3.80;2.40;;;15.80;99.90;;;;;;5032511;28;20168;-69
2022/07/23 04:51:02;;;;;;;3.10;2.50;;;15.70;99.90;;;;;;5032267;28;20461;-69
2022/07/23 04:53:27;;;;;;;3.40;2.30;;;15.50;99.90;;;;;;5032303;28;20610;-71
2022/07/23 04:55:53;;;;;;;3.97;2.37;;;15.30;99.90;;;;;;5032398;28;20761;-70
2022/07/23 04:58:19;;;;;;;3.30;2.93;;;15.30;99.90;;;;;;5032315;28;20175;-71
2022/07/23 05:00:44;;;;;;;2.60;2.40;;;15.20;99.90;;;;;;5032202;28;20258;-70
2022/07/23 05:03:10;;;;;;;6.30;3.03;;;15.20;99.90;;;;;;5031912;28;20207;-70
2022/07/23 05:05:36;;;;;;;2.40;2.13;;;15.10;99.90;;;;;;5032047;28;20259;-70
2022/07/23 05:08:01;;;;;;;5.40;2.70;;;15.00;99.90;;;;;;5030874;28;20180;-70
2022/07/23 05:10:27;;;;;;;2.50;2.30;;;15.00;99.90;;;;;;5031951;28;20203;-69
2022/07/23 05:12:52;;;;;;;6.70;2.97;;;14.90;99.90;;;;;;5031965;28;20202;-71
2022/07/23 05:15:18;;;;;;;3.87;3.13;;;14.80;99.90;;;;;;5032082;28;20279;-70
2022/07/23 05:17:43;;;;;;;3.63;2.97;;;14.80;99.90;;;;;;5032269;28;20222;-70
2022/07/23 05:20:09;;;;;;;8.00;2.93;;;14.80;99.90;;;;;;5032049;28;20167;-72
2022/07/23 05:22:35;;;;;;;5.47;3.50;;;14.80;99.90;;;;;;5031890;28;20222;-71
2022/07/23 05:25:00;;;;;;;3.60;2.53;;;14.80;99.90;;;;;;5031751;28;20225;-71
2022/07/23 05:27:26;;;;;;;2.90;2.70;;;14.80;99.90;;;;;;5030631;28;20182;-70
2022/07/23 05:29:52;;;;;;;3.37;3.07;;;14.80;99.90;;;;;;5031777;28;20533;-70
2022/07/23 05:32:17;;;;;;;3.63;2.20;;;14.80;99.90;;;;;;5024663;28;20191;-71
2022/07/23 05:34:43;;;;;;;3.10;2.70;;;14.70;99.90;;;;;;5029403;28;20203;-70
2022/07/23 05:37:08;;;;;;;3.40;2.63;;;14.70;99.90;;;;;;5032198;28;20167;-70
2022/07/23 05:39:34;;;;;;;3.73;2.77;;;14.70;99.90;;;;;;5026606;28;20176;-70
2022/07/23 05:41:59;;;;;;;7.00;2.27;;;14.80;99.90;;;;;;5030782;28;20580;-70
2022/07/23 05:44:27;;;;;;;3.40;2.43;;;14.70;99.90;;;;;;5032074;28;20187;-70
2022/07/23 05:46:52;;;;;;;3.60;3.10;;;14.70;99.90;;;;;;5036259;28;20175;-69
2022/07/23 05:49:18;;;;;;;4.50;2.80;;;14.70;99.90;;;;;;5034637;28;20457;-70
2022/07/23 05:51:43;;;;;;;2.93;2.67;;;14.70;99.90;;;;;;5035519;28;20279;-70
2022/07/23 05:54:09;;;;;;;3.87;2.60;;;14.80;99.90;;;;;;5036109;28;20171;-70
2022/07/23 05:56:35;;;;;;;4.37;2.67;;;14.80;99.90;;;;;;5035547;28;20686;-70
2022/07/23 05:59:00;;;;;;;3.07;2.80;;;14.80;99.90;;;;;;5035657;28;20253;-70
2022/07/23 06:01:26;;;;;;;4.43;3.00;;;15.00;99.90;;;;;;5035263;28;20453;-70
2022/07/23 06:03:52;;;;;;;3.77;3.07;;;15.00;99.90;;;;;;5035512;28;20175;-70
2022/07/23 06:06:17;;;;;;;3.93;3.10;;;15.00;99.90;;;;;;5033836;28;20433;-70
2022/07/23 06:08:43;;;;;;;3.03;2.70;;;15.10;99.90;;;;;;5035303;28;20168;-70
2022/07/23 06:11:08;;;;;;;3.40;2.97;;;15.10;99.90;;;;;;5034924;28;20211;-70
2022/07/23 06:13:34;;;;;;;7.17;2.83;;;15.20;99.90;;;;;;5035115;28;20175;-70
2022/07/23 06:15:59;;;;;;;7.07;3.03;;;15.10;99.90;;;;;;5034904;28;20548;-72
2022/07/23 06:18:25;;;;;;;3.47;2.70;;;15.10;99.90;;;;;;5035085;28;20561;-72
2022/07/23 06:20:51;;;;;;;3.57;3.27;;;15.10;99.90;;;;;;5034946;28;20164;-71
2022/07/23 06:23:16;;;;;;;7.93;3.57;;;15.10;99.90;;;;;;5034995;28;20168;-71
2022/07/23 06:25:42;;;;;;;5.00;2.60;;;15.10;99.90;;;;;;5034907;28;20550;-71
2022/07/23 06:28:07;;;;;;;3.10;2.80;;;15.10;99.90;;;;;;5034843;28;20167;-70
2022/07/23 06:30:33;;;;;;;4.00;3.60;;;15.10;99.90;;;;;;5034712;28;20199;-71
2022/07/23 06:32:58;;;;;;;3.40;3.10;;;15.10;99.90;;;;;;5034513;28;20195;-70
2022/07/23 06:35:24;;;;;;;3.43;3.13;;;15.20;99.90;;;;;;5034429;28;20247;-70
2022/07/23 06:37:50;;;;;;;4.80;3.43;;;15.20;99.90;;;;;;5034595;28;20592;-70
2022/07/23 06:40:16;;;;;;;7.33;3.80;;;15.30;99.90;;;;;;5034503;28;20414;-71
2022/07/23 06:42:41;;;;;;;5.53;3.53;;;15.20;99.90;;;;;;5034443;28;20195;-70
2022/07/23 06:45:07;;;;;;;3.50;3.20;;;15.30;99.90;;;;;;5034535;28;20239;-70
2022/07/23 06:47:33;;;;;;;5.70;3.80;;;15.30;99.90;;;;;;5033433;28;20210;-70
2022/07/23 06:49:59;;;;;;;4.43;3.30;;;15.40;99.90;;;;;;5034365;28;20964;-71
2022/07/23 06:52:25;;;;;;;6.10;3.30;;;15.40;99.90;;;;;;5034272;28;20212;-71
2022/07/23 06:54:51;;;;;;;6.17;3.50;;;15.50;99.90;;;;;;5033563;28;20480;-70
2022/07/23 06:57:17;;;;;;;4.70;3.83;;;15.50;99.90;;;;;;5033174;28;20494;-70
2022/07/23 06:59:42;;;;;;;5.53;3.17;;;15.50;99.90;;;;;;5033811;28;20489;-70
2022/07/23 07:02:08;;;;;;;5.90;3.80;;;15.50;99.90;;;;;;5047990;23;20250;-64
2022/07/23 07:04:34;;;;;;;5.03;3.10;;;15.50;99.90;;;;;;4993595;28;20289;-64
2022/07/23 07:06:59;;;;;;;6.10;3.90;;;15.50;99.90;;;;;;4989386;28;20184;-65
2022/07/23 07:09:25;;;;;;;6.40;3.17;;;15.60;99.90;;;;;;4993986;28;20685;-64
2022/07/23 07:11:50;;;;;;;5.70;4.27;;;15.60;99.90;;;;;;4993831;28;20644;-65
2022/07/23 07:14:16;;;;;;;4.73;3.43;;;15.70;99.90;;;;;;4993525;28;20187;-64
2022/07/23 07:16:42;;;;;;;7.63;4.60;;;15.70;99.90;;;;;;4993696;28;20553;-64
2022/07/23 07:19:07;;;;;;;6.80;4.40;;;15.80;99.90;;;;;;4993611;28;20169;-64
2022/07/23 07:21:33;;;;;;;9.50;4.27;;;15.90;99.90;;;;;;4992457;28;20173;-64
2022/07/23 07:23:59;;;;;;;5.00;4.07;;;15.90;99.90;;;;;;4994113;28;20190;-64
2022/07/23 07:26:25;;;;;;;6.03;3.27;;;16.10;99.90;;;;;;4993739;28;20883;-64
2022/07/23 07:28:51;;;;;;;4.47;3.77;;;16.20;99.90;;;;;;4993474;28;20409;-65
2022/07/23 07:31:17;;;;;;;4.30;3.23;;;16.30;99.90;;;;;;4993318;28;20200;-64
2022/07/23 07:33:42;;;;;;;10.03;4.03;;;16.40;99.90;;;;;;4993386;28;20211;-65
2022/07/23 07:36:08;;;;;;;4.10;3.70;;;16.50;99.90;;;;;;4993345;28;20236;-63
2022/07/23 07:38:34;;;;;;;4.93;3.40;;;16.40;99.90;;;;;;4993469;28;20176;-64
2022/07/23 07:40:59;;;;;;;5.30;3.40;;;16.30;99.90;;;;;;4992744;28;20178;-64
2022/07/23 07:43:25;;;;;;;3.93;2.70;;;16.20;99.90;;;;;;4993097;28;20213;-64
2022/07/23 07:45:50;;;;;;;3.10;2.80;;;16.50;99.90;;;;;;4989064;28;20336;-64
2022/07/23 07:48:16;;;;;;;4.70;2.70;;;16.80;99.90;;;;;;4973759;28;20657;-65
2022/07/23 07:50:41;;;;;;;4.60;3.30;;;17.00;99.90;;;;;;4973452;28;20818;-64
2022/07/23 07:53:08;;;;;;;4.57;3.27;;;17.30;99.90;;;;;;4985937;28;20204;-64
2022/07/23 07:55:34;;;;;;;4.03;2.93;;;17.20;99.90;;;;;;4993009;28;20259;-65
2022/07/23 07:58:00;;;;;;;3.40;3.10;;;17.20;99.90;;;;;;4993088;28;20443;-64
2022/07/23 08:00:25;;;;;;;4.67;3.83;;;17.00;99.90;;;;;;4992810;28;20913;-64
2022/07/23 08:02:53;;;;;;;5.77;2.93;;;17.10;99.90;;;;;;4992578;28;20212;-64
2022/07/23 08:05:24;;;;;;;3.30;3.03;;;17.50;99.90;;;;;;4992550;28;20627;-64
2022/07/23 08:07:50;;;;;;;4.50;3.23;;;18.30;99.90;;;;;;4992250;28;20395;-65
2022/07/23 08:10:16;;;;;;;3.00;2.70;;;18.50;99.90;;;;;;4992013;28;20463;-64
2022/07/23 08:12:45;;;;;;;2.87;2.57;;;18.30;99.90;;;;;;4992263;28;20200;-65
2022/07/23 08:15:16;;;;;;;2.60;2.40;;;18.30;99.90;;;;;;4991469;28;20465;-65
2022/07/23 08:17:43;;;;;;;2.73;2.30;;;19.30;99.90;;;;;;4992286;28;20406;-65
2022/07/23 08:20:10;;;;;;;5.17;2.37;;;20.00;99.90;;;;;;4992729;28;20788;-65
2022/07/23 08:22:45;;;;;;;2.23;2.03;;;21.00;99.90;;;;;;4992396;28;20424;-65
2022/07/23 08:25:11;;;;;;;3.37;1.70;;;21.50;99.90;;;;;;4992219;28;20419;-65
2022/07/23 08:27:36;;;;;;;3.20;2.07;;;21.00;99.90;;;;;;4992425;28;20909;-65
2022/07/23 08:30:03;;;;;;;1.83;1.73;;;21.00;99.90;;;;;;4992133;28;20222;-65
2022/07/23 08:32:29;;;;;;;4.07;1.77;;;21.70;99.90;;;;;;4992187;28;20393;-65
2022/07/23 08:34:54;;;;;;;1.27;1.03;;;22.50;99.90;;;;;;4992861;28;20411;-65
2022/07/23 08:37:20;;;;;;;3.27;1.60;;;22.40;99.90;;;;;;4992124;28;20184;-64
2022/07/23 08:39:45;;;;;;;2.23;1.70;;;21.60;99.90;;;;;;4992039;28;20168;-65
2022/07/23 08:42:13;;;;;;;1.73;1.63;;;21.80;99.90;;;;;;4992025;28;20189;-65
2022/07/23 08:44:44;;;;;;;2.10;1.90;;;21.80;99.90;;;;;;4991914;28;20192;-65
2022/07/23 08:47:10;;;;;;;1.80;1.60;;;22.20;99.90;;;;;;4991913;28;20496;-65
2022/07/23 08:49:37;;;;;;;4.60;1.70;;;22.20;99.90;;;;;;4992336;28;20515;-65
2022/07/23 08:52:04;;;;;;;2.13;1.50;;;21.90;99.90;;;;;;4991937;28;20424;-65
2022/07/23 08:54:30;;;;;;;1.40;1.30;;;22.40;99.90;;;;;;4991769;28;20476;-65
2022/07/23 08:56:55;;;;;;;3.07;1.20;;;22.20;99.90;;;;;;4991923;28;20817;-65
2022/07/23 08:59:21;;;;;;;2.73;1.50;;;22.60;99.90;;;;;;4991803;28;20169;-66
2022/07/23 09:01:47;;;;;;;1.60;1.50;;;22.30;99.90;;;;;;4991669;28;20169;-65
2022/07/23 09:04:12;;;;;;;6.30;2.30;;;22.70;99.90;;;;;;4991692;28;20415;-65
2022/07/23 09:06:42;;;;;;;2.13;1.33;;;22.30;99.90;;;;;;4991728;28;20208;-65
2022/07/23 09:09:20;;;;;;;2.53;1.67;;;22.70;99.90;;;;;;4991774;28;20203;-65
2022/07/23 09:11:48;;;;;;;1.60;1.50;;;22.90;99.90;;;;;;4991444;28;20406;-65
2022/07/23 09:14:13;;;;;;;1.60;1.50;;;23.50;99.90;;;;;;4991572;28;20406;-65
2022/07/23 09:16:39;;;;;;;2.50;1.83;;;22.70;99.90;;;;;;4991940;28;20486;-66
2022/07/23 09:19:07;;;;;;;2.80;1.50;;;22.30;99.90;;;;;;4991673;28;20161;-66
2022/07/23 09:21:37;;;;;;;1.97;1.70;;;23.10;99.90;;;;;;4991410;28;20165;-66
2022/07/23 09:24:10;;;;;;;3.40;2.23;;;22.60;99.90;;;;;;4991835;28;20431;-66
2022/07/23 09:26:36;;;;;;;2.70;1.70;;;22.30;99.90;;;;;;4991536;28;21621;-66
2022/07/23 09:29:06;;;;;;;2.53;2.10;;;23.00;99.90;;;;;;4991517;28;20408;-65
2022/07/23 09:31:42;;;;;;;2.27;1.70;;;23.10;99.90;;;;;;4991839;28;20562;-67
2022/07/23 09:34:15;;;;;;;4.50;2.10;;;23.10;99.90;;;;;;4991635;28;20479;-66
2022/07/23 09:36:42;;;;;;;2.90;2.03;;;22.30;99.90;;;;;;4991497;28;20396;-67
2022/07/23 09:39:09;;;;;;;2.37;1.80;;;22.80;99.90;;;;;;4991226;28;20444;-67
2022/07/23 09:41:37;;;;;;;2.83;2.20;;;23.50;99.90;;;;;;4991410;28;20898;-67
2022/07/23 09:44:22;;;;;;;2.43;2.23;;;23.40;99.90;;;;;;4991546;28;20408;-66
2022/07/23 09:46:49;;;;;;;3.13;2.10;;;23.70;99.90;;;;;;4991481;28;20400;-67
2022/07/23 09:49:21;;;;;;;2.40;2.20;;;24.10;99.90;;;;;;4991273;28;20404;-65
2022/07/23 09:51:59;;;;;;;2.20;2.10;;;23.30;99.90;;;;;;4991382;28;20407;-66
2022/07/23 09:54:35;;;;;;;1.87;1.77;;;23.20;99.90;;;;;;4991267;28;20870;-66
2022/07/23 09:57:13;;;;;;;3.40;2.20;;;23.20;99.90;;;;;;4991720;28;20411;-66
2022/07/23 09:59:39;;;;;;;4.60;3.97;;;23.80;99.90;;;;;;4991267;28;20416;-65
2022/07/23 10:02:06;;;;;;;2.67;2.00;;;25.10;99.90;;;;;;4991404;28;20444;-66
2022/07/23 10:04:32;;;;;;;2.80;2.07;;;25.00;99.90;;;;;;4991317;28;20850;-66
2022/07/23 10:07:00;;;;;;;2.97;2.67;;;23.90;99.90;;;;;;4991351;28;20443;-65
2022/07/23 10:09:39;;;;;;;2.90;2.10;;;23.30;99.90;;;;;;4991127;28;20894;-66
2022/07/23 10:14:42;;;;;;;5.53;4.73;;;22.80;99.90;;;;;;4991609;28;20415;-66
2022/07/23 10:17:08;;;;;;;8.17;2.27;;;23.70;99.90;;;;;;4991016;28;20783;-65
2022/07/23 10:19:35;;;;;;;2.30;2.10;;;23.80;99.90;;;;;;4991100;28;20399;-66
2022/07/23 10:22:09;;;;;;;2.30;2.00;;;23.60;99.90;;;;;;4991041;28;20223;-66
2022/07/23 10:25:06;;;;;;;3.90;3.03;;;23.90;99.90;;;;;;4989453;28;20417;-66
2022/07/23 10:27:42;;;;;;;3.00;1.90;;;23.50;99.90;;;;;;4990989;28;20493;-66
2022/07/23 10:30:33;;;;;;;3.60;2.13;;;23.40;99.90;;;;;;4990984;28;20593;-66
2022/07/23 10:33:29;;;;;;;1.87;1.77;;;22.00;99.90;;;;;;4993308;28;20454;-65
2022/07/23 10:36:09;;;;;;;2.37;1.90;;;21.90;99.90;;;;;;4994467;28;20456;-65
2022/07/23 10:38:55;;;;;;;2.43;2.07;;;21.90;99.90;;;;;;4994392;28;20410;-65
2022/07/23 10:41:39;;;;;;;1.80;1.70;;;22.50;99.90;;;;;;4994451;28;20756;-65
2022/07/23 10:44:10;;;;;;;4.20;1.80;;;23.20;99.90;;;;;;4994490;28;20769;-65
2022/07/23 10:46:53;;;;;;;4.07;2.33;;;22.60;99.90;;;;;;4994180;28;20411;-65
2022/07/23 10:49:29;;;;;;;5.03;2.00;;;22.20;99.90;;;;;;4994101;28;20490;-65
2022/07/23 10:52:25;;;;;;;1.93;1.53;;;22.60;99.90;;;;;;4993881;28;20403;-65
2022/07/23 10:54:53;;;;;;;1.67;1.57;;;23.20;99.90;;;;;;4981666;28;20786;-66
2022/07/23 10:57:24;;;;;;;4.83;1.83;;;23.50;99.90;;;;;;4994246;28;20421;-65
2022/07/23 11:00:14;;;;;;;2.20;1.87;;;23.10;99.90;;;;;;4994093;28;20484;-65
2022/07/23 11:02:42;;;;;;;2.57;1.93;;;23.00;99.90;;;;;;4994165;28;20533;-65
2022/07/23 11:05:13;;;;;;;2.47;2.17;;;23.00;99.90;;;;;;4993817;28;20888;-65
2022/07/23 11:08:04;;;;;;;2.90;2.00;;;23.80;99.90;;;;;;4994098;28;20458;-66
2022/07/23 11:10:34;;;;;;;2.13;1.73;;;23.80;99.90;;;;;;4993696;28;20484;-65
2022/07/23 11:13:21;;;;;;;2.17;1.97;;;23.70;99.90;;;;;;4993992;28;20448;-65
2022/07/23 11:16:04;;;;;;;2.43;2.23;;;23.60;99.90;;;;;;4993629;28;20407;-65
2022/07/23 11:18:48;;;;;;;2.57;2.17;;;24.00;99.90;;;;;;4994672;28;20484;-65
2022/07/23 11:21:31;;;;;;;2.57;2.37;;;23.90;99.90;;;;;;4994225;28;20402;-66
2022/07/23 11:23:57;;;;;;;2.23;1.80;;;23.80;99.90;;;;;;4993739;28;20510;-66
2022/07/23 11:26:41;;;;;;;2.53;1.70;;;23.60;99.90;;;;;;4993520;28;20843;-65
2022/07/23 11:29:33;;;;;;;2.37;2.27;;;23.50;99.90;;;;;;4993448;28;20217;-67
2022/07/23 11:32:06;;;;;;;3.10;2.17;;;23.20;99.90;;;;;;4991717;28;20482;-65
2022/07/23 11:34:41;;;;;;;2.20;2.00;;;23.50;99.90;;;;;;4993412;28;20396;-65
2022/07/23 11:37:10;;;;;;;5.27;2.27;;;23.80;99.90;;;;;;4993273;28;20472;-65
2022/07/23 11:39:37;;;;;;;2.10;1.80;;;23.50;99.90;;;;;;4993386;28;20470;-66
2022/07/23 11:42:05;;;;;;;2.97;2.10;;;23.20;99.90;;;;;;4993534;28;20435;-66
2022/07/23 11:44:38;;;;;;;2.60;2.40;;;22.70;99.90;;;;;;4992938;28;20400;-65
2022/07/23 11:47:11;;;;;;;2.70;2.50;;;23.20;99.90;;;;;;4993139;28;20399;-66
2022/07/23 11:49:37;;;;;;;2.47;2.23;;;23.60;99.90;;;;;;4992875;28;20820;-66
2022/07/23 11:52:14;;;;;;;2.33;2.13;;;23.20;99.90;;;;;;4993010;28;20837;-65
2022/07/23 11:54:49;;;;;;;2.27;2.07;;;23.10;99.90;;;;;;4993011;28;20407;-65
2022/07/23 11:57:15;;;;;;;3.60;2.57;;;23.30;99.90;;;;;;4992856;28;20403;-65
2022/07/23 11:59:42;;;;;;;2.20;2.00;;;23.20;99.90;;;;;;4992783;28;20405;-65
2022/07/23 12:02:08;;;;;;;2.63;2.43;;;22.80;99.90;;;;;;4992617;28;20216;-65
2022/07/23 12:04:41;;;;;;;3.13;2.50;;;23.00;99.90;;;;;;4992468;28;20850;-65
2022/07/23 12:07:32;;;;;;;2.67;2.10;;;22.60;99.90;;;;;;4992784;28;20175;-65
2022/07/23 12:10:19;;;;;;;4.83;2.53;;;23.00;99.90;;;;;;4992794;28;20475;-65
2022/07/23 12:12:54;;;;;;;2.80;2.00;;;23.30;99.90;;;;;;4992036;28;20493;-65
2022/07/23 12:15:28;;;;;;;2.17;2.00;;;22.90;99.90;;;;;;4993118;28;20509;-65
2022/07/23 12:17:54;;;;;;;2.67;2.47;;;22.80;99.90;;;;;;4992688;28;20410;-65
2022/07/23 12:20:25;;;;;;;10.03;3.37;;;23.10;99.90;;;;;;4992406;28;20418;-65
2022/07/23 12:22:57;;;;;;;2.73;2.03;;;23.60;99.90;;;;;;4992462;28;20195;-65
2022/07/23 12:25:25;;;;;;;2.40;2.20;;;23.10;99.90;;;;;;4992270;28;20413;-65
2022/07/23 12:28:33;;;;;;;2.40;2.20;;;23.50;99.90;;;;;;4992348;28;20909;-65
2022/07/23 12:30:58;;;;;;;6.90;2.67;;;23.80;99.90;;;;;;4984315;28;20502;-65
2022/07/23 12:33:30;;;;;;;3.47;2.30;;;23.60;99.90;;;;;;4992170;28;20432;-65
2022/07/23 12:35:58;;;;;;;5.93;2.77;;;23.80;99.90;;;;;;4992101;28;20397;-65
2022/07/23 12:38:25;;;;;;;2.27;2.17;;;24.00;99.90;;;;;;4992329;28;20410;-65
2022/07/23 12:41:02;;;;;;;2.77;2.30;;;24.00;99.90;;;;;;4992219;28;20402;-65
2022/07/23 12:43:30;;;;;;;4.73;2.20;;;23.80;99.90;;;;;;4992099;28;20925;-65
2022/07/23 12:46:02;;;;;;;4.27;2.80;;;23.90;99.90;;;;;;4992181;28;20777;-65
2022/07/23 12:48:36;;;;;;;5.00;2.70;;;23.30;99.90;;;;;;4992051;28;20417;-65
2022/07/23 12:51:05;;;;;;;2.77;2.57;;;23.60;99.90;;;;;;4992652;28;20486;-65
2022/07/23 12:53:42;;;;;;;2.50;2.30;;;23.30;99.90;;;;;;4992006;28;20430;-65